Time;durP1;ratioP1;P1;durP2;ratioP2;P2;SDS_P1;SDS_P2;PMS_P1;PMS_P2;Temp;Humidity;BMP_temperature;BMP_pressure;BME280_temperature;BME280_humidity;BME280_pressure;Samples;Min_cycle;Max_cycle;Signal;HPM_P1;HPM_P2
2022/10/27 00:02:12;;;;;;;2.25;1.23;;;;;;;14.87;42.08;94732.81;5020973;28;20033;-77
2022/10/27 00:04:37;;;;;;;1.80;1.05;;;;;;;14.80;42.16;94721.03;5036611;28;20055;-77
2022/10/27 00:07:03;;;;;;;3.05;1.10;;;;;;;14.76;42.10;94723.56;5036879;28;20091;-77
2022/10/27 00:09:28;;;;;;;2.88;1.30;;;;;;;14.89;42.03;94745.91;5038080;28;20059;-78
2022/10/27 00:11:55;;;;;;;2.35;1.50;;;;;;;14.80;42.04;94732.53;5036944;28;20075;-77
2022/10/27 00:14:20;;;;;;;2.05;1.10;;;;;;;14.73;42.14;94731.41;5019649;28;20074;-78
2022/10/27 00:16:52;;;;;;;2.53;1.42;;;;;;;14.58;42.26;94709.38;5035934;28;20053;-77
2022/10/27 00:19:18;;;;;;;1.95;1.00;;;;;;;14.82;42.34;94748.25;5013419;28;20493;-76
2022/10/27 00:21:43;;;;;;;1.52;1.02;;;;;;;14.77;42.48;94740.38;5037324;28;20048;-77
2022/10/27 00:24:08;;;;;;;1.85;1.23;;;;;;;14.53;42.45;94711.41;5038848;28;20043;-77
2022/10/27 00:26:34;;;;;;;2.53;1.27;;;;;;;14.61;42.57;94721.34;5034780;28;21057;-77
2022/10/27 00:28:59;;;;;;;3.35;1.38;;;;;;;14.58;42.64;94709.38;5036589;28;20028;-76
2022/10/27 00:31:25;;;;;;;2.50;1.20;;;;;;;14.65;42.71;94730.31;5036646;28;20575;-77
2022/10/27 00:33:50;;;;;;;2.05;1.10;;;;;;;14.75;42.78;94740.72;5037182;28;20171;-78
2022/10/27 00:36:22;;;;;;;1.80;1.33;;;;;;;14.73;43.00;94744.81;5035546;28;20028;-78
2022/10/27 00:38:48;;;;;;;1.83;1.10;;;;;;;14.68;43.21;94736.94;5037164;28;20036;-77
2022/10/27 00:41:24;;;;;;;1.63;1.20;;;;;;;14.70;43.08;94748.13;5034229;28;20079;-78
2022/10/27 00:43:50;;;;;;;2.83;1.70;;;;;;;14.67;43.32;94743.41;5011744;28;20021;-76
2022/10/27 00:46:19;;;;;;;3.33;1.52;;;;;;;14.57;43.22;94734.56;5036460;28;20025;-76
2022/10/27 00:48:46;;;;;;;2.00;1.10;;;;;;;14.65;43.44;94750.97;5039575;28;20051;-77
2022/10/27 00:51:15;;;;;;;6.18;1.27;;;;;;;14.50;43.66;94739.59;5039687;28;20503;-77
2022/10/27 00:53:42;;;;;;;2.55;1.48;;;;;;;14.55;43.72;94752.84;5041433;28;20025;-76
2022/10/27 00:56:08;;;;;;;1.45;1.20;;;;;;;14.49;43.63;94742.56;5040256;28;20029;-77
2022/10/27 00:58:33;;;;;;;3.38;1.55;;;;;;;14.61;43.67;94756.16;5040324;28;20035;-78
2022/10/27 01:01:00;;;;;;;3.97;1.58;;;;;;;14.66;43.67;94769.41;5040589;28;20135;-77
2022/10/27 01:03:26;;;;;;;3.67;1.50;;;;;;;14.65;43.55;94773.16;5038692;28;20032;-76
2022/10/27 01:05:52;;;;;;;1.83;1.25;;;;;;;14.36;43.37;94727.47;5022900;28;20033;-78
2022/10/27 01:08:18;;;;;;;2.42;1.38;;;;;;;14.70;43.59;94774.91;5016578;28;20107;-77
2022/10/27 01:10:43;;;;;;;2.83;1.98;;;;;;;14.55;43.56;94752.84;5041333;28;20029;-77
2022/10/27 01:13:09;;;;;;;2.53;1.52;;;;;;;14.66;43.71;94779.31;5021885;28;20071;-78
2022/10/27 01:15:49;;;;;;;2.80;1.42;;;;;;;14.65;43.76;94775.84;5038734;28;20158;-77
2022/10/27 01:18:26;;;;;;;2.30;1.65;;;;;;;14.66;43.77;94779.31;5038672;28;20723;-79
2022/10/27 01:21:16;;;;;;;2.35;1.38;;;;;;;14.64;43.83;94778.81;5038949;28;20035;-77
2022/10/27 01:24:19;;;;;;;3.53;1.45;;;;;;;14.59;43.83;94780.56;5037648;28;20061;-77
2022/10/27 01:26:50;;;;;;;13.82;2.72;;;;;;;14.27;43.61;94738.16;5040278;28;20032;-77
2022/10/27 01:29:53;;;;;;;7.97;2.40;;;;;;;14.46;43.87;94778.00;5038032;28;20046;-78
2022/10/27 01:32:40;;;;;;;6.18;1.65;;;;;;;14.47;43.96;94791.06;4993167;28;20033;-77
2022/10/27 01:35:19;;;;;;;4.10;1.75;;;;;;;14.46;44.04;94778.78;5040457;28;20025;-77
2022/10/27 01:37:59;;;;;;;3.58;1.63;;;;;;;14.38;44.26;94774.22;5015240;28;20357;-78
2022/10/27 01:40:56;;;;;;;2.08;1.40;;;;;;;14.10;44.30;94748.84;5039726;28;20025;-77
2022/10/27 01:43:25;;;;;;;3.72;1.48;;;;;;;14.20;44.12;94767.25;5019545;28;20044;-77
2022/10/27 01:45:52;;;;;;;2.47;1.55;;;;;;;14.29;44.26;94776.09;5038959;28;20039;-77
2022/10/27 01:48:19;;;;;;;3.55;2.20;;;;;;;14.23;44.15;94771.97;5039722;28;20395;-77
2022/10/27 01:50:45;;;;;;;5.43;1.65;;;;;;;14.12;44.18;94760.03;5038884;28;20446;-77
2022/10/27 01:53:11;;;;;;;3.97;2.00;;;;;;;14.18;44.57;94774.81;5022845;28;20440;-77
2022/10/27 01:55:45;;;;;;;4.97;2.10;;;;;;;14.23;44.46;94777.34;5039399;28;20148;-80
2022/10/27 01:58:55;;;;;;;3.42;2.03;;;;;;;14.24;44.44;94772.78;5042377;28;20480;-77
2022/10/27 02:01:53;;;;;;;2.47;1.42;;;;;;;14.22;44.55;94775.78;4942999;28;20038;-77
2022/10/27 02:04:24;;;;;;;2.67;1.33;;;;;;;14.21;44.61;94763.50;4954106;28;20206;-79
2022/10/27 02:07:04;;;;;;;11.05;1.90;;;;;;;14.22;44.50;94767.75;5014970;28;20682;-79
2022/10/27 02:09:42;;;;;;;2.40;1.50;;;;;;;14.25;44.41;94769.78;5040523;28;20057;-78
2022/10/27 02:12:24;;;;;;;4.30;1.30;;;;;;;14.25;44.47;94769.00;5038930;28;20032;-77
2022/10/27 02:14:53;;;;;;;5.10;1.77;;;;;;;14.25;44.67;94769.00;5039980;28;20055;-76
2022/10/27 02:17:20;;;;;;;3.65;2.35;;;;;;;14.12;44.75;94746.66;5039842;28;20045;-79
2022/10/27 02:19:50;;;;;;;4.57;1.88;;;;;;;13.84;44.60;94708.66;5038996;28;20212;-75
2022/10/27 02:22:16;;;;;;;3.13;1.92;;;;;;;14.11;44.60;94748.53;5039032;28;20033;-79
2022/10/27 02:24:42;;;;;;;2.60;1.63;;;;;;;14.07;44.97;94747.59;5038614;28;20021;-78
2022/10/27 02:27:19;;;;;;;2.30;1.60;;;;;;;14.13;44.86;94756.25;5040635;28;20064;-77
2022/10/27 02:29:47;;;;;;;2.35;1.48;;;;;;;14.05;45.22;94759.69;5037710;28;20616;-79
2022/10/27 02:32:17;;;;;;;2.75;1.65;;;;;;;14.03;45.06;94759.22;5039313;28;20578;-79
2022/10/27 02:34:44;;;;;;;2.67;1.50;;;;;;;14.15;44.83;94786.13;5039196;28;20049;-77
2022/10/27 02:37:16;;;;;;;2.60;1.67;;;;;;;14.13;44.91;94788.34;5039468;28;20614;-78
2022/10/27 02:39:41;;;;;;;4.43;1.70;;;;;;;13.87;45.15;94753.50;5038074;28;20060;-79
2022/10/27 02:42:07;;;;;;;2.60;1.50;;;;;;;14.01;45.02;94775.56;5038916;28;20563;-78
2022/10/27 02:44:32;;;;;;;2.28;1.42;;;;;;;14.03;45.01;94788.63;5038039;28;20025;-78
2022/10/27 02:46:57;;;;;;;1.33;1.23;;;;;;;14.10;45.01;94796.97;5039650;28;20035;-77
2022/10/27 02:49:23;;;;;;;2.88;1.45;;;;;;;13.65;45.15;94732.97;5037248;28;20025;-77
2022/10/27 02:51:48;;;;;;;2.00;1.30;;;;;;;13.97;44.97;94776.50;5039832;28;20036;-76
2022/10/27 02:54:13;;;;;;;1.77;1.17;;;;;;;14.00;44.83;94781.22;5038094;28;20021;-76
2022/10/27 02:56:39;;;;;;;3.70;1.75;;;;;;;13.98;44.86;94784.22;5038695;28;20620;-77
2022/10/27 02:59:04;;;;;;;1.67;1.13;;;;;;;14.05;44.83;94794.44;5038418;28;20032;-77
2022/10/27 03:01:30;;;;;;;2.33;1.30;;;;;;;14.07;45.09;94805.63;5038816;28;20021;-77
2022/10/27 03:03:55;;;;;;;4.43;1.30;;;;;;;13.93;45.25;94788.91;5037562;28;20024;-77
2022/10/27 03:06:20;;;;;;;1.35;1.05;;;;;;;13.97;45.17;94795.22;5038852;28;20032;-77
2022/10/27 03:08:46;;;;;;;1.90;1.10;;;;;;;13.82;45.25;94783.06;5038196;28;20480;-77
2022/10/27 03:11:11;;;;;;;2.03;1.40;;;;;;;13.92;44.94;94798.03;5037885;28;20029;-77
2022/10/27 03:13:36;;;;;;;3.22;1.42;;;;;;;13.81;45.11;94780.69;5037306;28;20031;-76
2022/10/27 03:16:02;;;;;;;2.80;1.15;;;;;;;13.75;45.14;94782.72;5037094;28;20076;-77
2022/10/27 03:18:27;;;;;;;2.55;1.40;;;;;;;13.77;45.14;94796.56;5038300;28;20036;-76
2022/10/27 03:20:53;;;;;;;5.97;1.30;;;;;;;13.69;45.46;94800.75;5039156;28;20063;-77
2022/10/27 03:23:18;;;;;;;2.08;1.10;;;;;;;13.63;45.69;94799.34;5037528;28;20452;-76
2022/10/27 03:25:44;;;;;;;3.58;1.38;;;;;;;13.63;45.70;94823.41;5039049;28;20616;-76
2022/10/27 03:28:12;;;;;;;3.95;1.65;;;;;;;13.55;45.76;94816.09;5037754;28;20742;-78
2022/10/27 03:30:38;;;;;;;4.55;1.80;;;;;;;13.66;45.76;94833.47;5037270;28;20031;-77
2022/10/27 03:33:04;;;;;;;2.08;1.33;;;;;;;13.60;45.55;94812.53;5037025;28;20500;-76
2022/10/27 03:35:29;;;;;;;3.47;1.90;;;;;;;13.75;45.50;94831.63;5039119;28;20337;-79
2022/10/27 03:37:56;;;;;;;6.85;2.50;;;;;;;13.71;45.79;94813.84;5037685;28;20059;-78
2022/10/27 03:40:22;;;;;;;3.85;2.47;;;;;;;13.66;45.63;94800.59;5028841;28;20021;-77
2022/10/27 03:42:48;;;;;;;4.25;2.38;;;;;;;13.69;45.73;94811.47;5035251;28;20553;-77
2022/10/27 03:45:13;;;;;;;5.60;2.67;;;;;;;13.84;45.55;94828.22;5039046;28;20098;-78
2022/10/27 03:47:38;;;;;;;4.40;3.00;;;;;;;13.74;45.50;94808.66;5035976;28;20037;-78
2022/10/27 03:50:04;;;;;;;4.15;2.25;;;;;;;13.80;45.84;94817.34;5038758;28;20112;-78
2022/10/27 03:52:30;;;;;;;4.35;2.72;;;;;;;13.78;45.73;94806.16;5036789;28;20357;-77
2022/10/27 03:54:55;;;;;;;3.85;1.90;;;;;;;13.71;45.85;94798.59;5038601;28;20700;-77
2022/10/27 03:57:21;;;;;;;5.88;4.00;;;;;;;13.82;45.43;94803.66;5038814;28;20057;-78
2022/10/27 03:59:46;;;;;;;4.63;2.38;;;;;;;13.83;45.45;94800.69;5038747;28;20392;-78
2022/10/27 04:02:11;;;;;;;3.55;2.03;;;;;;;13.82;45.35;94795.66;5037358;28;20074;-79
2022/10/27 04:04:37;;;;;;;5.53;2.50;;;;;;;13.95;45.71;94824.16;5037531;28;20452;-78
2022/10/27 04:07:02;;;;;;;3.35;1.92;;;;;;;13.89;45.73;94798.63;5037601;28;20029;-78
2022/10/27 04:09:28;;;;;;;4.75;2.25;;;;;;;13.89;45.51;94806.66;5038794;28;20025;-78
2022/10/27 04:11:53;;;;;;;4.55;2.30;;;;;;;13.97;45.51;94808.59;5037532;28;20125;-78
2022/10/27 04:14:18;;;;;;;7.45;1.90;;;;;;;13.91;45.71;94809.81;5037123;28;20029;-78
2022/10/27 04:16:50;;;;;;;6.78;2.38;;;;;;;13.83;45.54;94795.34;5036578;28;20049;-79
2022/10/27 04:19:18;;;;;;;8.70;2.83;;;;;;;13.86;45.85;94809.97;5037346;28;20029;-77
2022/10/27 04:21:43;;;;;;;3.10;1.75;;;;;;;13.72;45.82;94808.19;5037635;28;20024;-78
2022/10/27 04:24:09;;;;;;;5.53;2.28;;;;;;;13.86;46.00;94831.34;5041088;28;20021;-78
2022/10/27 04:26:34;;;;;;;16.23;2.67;;;;;;;13.84;45.89;94839.69;5024165;28;20021;-79
2022/10/27 04:29:00;;;;;;;27.42;4.07;;;;;;;13.60;45.85;94807.97;5040728;28;20075;-79
2022/10/27 04:31:25;;;;;;;5.82;2.10;;;;;;;13.65;46.12;94817.72;5041828;28;20031;-78
2022/10/27 04:33:50;;;;;;;8.00;2.60;;;;;;;13.52;45.86;94803.34;5040242;28;20110;-78
2022/10/27 04:36:16;;;;;;;10.18;3.00;;;;;;;13.74;45.98;94845.28;5040536;28;20039;-78
2022/10/27 04:38:41;;;;;;;5.13;2.80;;;;;;;13.57;45.90;94813.91;5022530;28;20024;-78
2022/10/27 04:41:06;;;;;;;7.10;3.03;;;;;;;13.61;45.93;94814.09;5040889;28;20025;-79
2022/10/27 04:43:32;;;;;;;4.55;3.35;;;;;;;13.67;45.98;94835.06;5041380;28;20502;-78
2022/10/27 04:45:57;;;;;;;4.72;2.67;;;;;;;13.63;46.04;94833.31;5040110;28;20021;-77
2022/10/27 04:48:22;;;;;;;19.08;4.70;;;;;;;13.58;45.95;94836.88;5040052;28;20033;-78
2022/10/27 04:50:48;;;;;;;7.57;3.28;;;;;;;13.47;45.94;94819.50;5040153;28;20434;-78
2022/10/27 04:53:13;;;;;;;6.18;4.25;;;;;;;13.45;46.09;94820.91;5041568;28;20496;-77
2022/10/27 04:55:39;;;;;;;8.05;3.60;;;;;;;13.48;46.25;94842.47;5040925;28;20719;-78
2022/10/27 04:58:04;;;;;;;17.58;4.88;;;;;;;13.29;46.07;94815.19;5042268;28;20021;-78
2022/10/27 05:00:29;;;;;;;6.75;3.72;;;;;;;13.42;46.30;94841.03;5041139;28;20021;-78
2022/10/27 05:02:58;;;;;;;11.90;2.40;;;;;;;13.38;46.13;94837.38;5041223;28;20041;-77
2022/10/27 05:05:26;;;;;;;6.35;2.33;;;;;;;13.15;46.24;94814.47;5039976;28;20055;-77
2022/10/27 05:07:56;;;;;;;3.10;2.60;;;;;;;13.23;46.31;94845.78;5023533;28;20111;-77
2022/10/27 05:10:23;;;;;;;7.40;2.47;;;;;;;13.22;46.29;94849.53;5040978;28;20028;-78
2022/10/27 05:12:48;;;;;;;9.30;3.05;;;;;;;13.15;46.26;94841.16;5040967;28;20392;-78
2022/10/27 05:15:14;;;;;;;6.70;2.42;;;;;;;13.19;46.23;94855.50;5041149;28;20032;-78
2022/10/27 05:17:39;;;;;;;7.85;3.45;;;;;;;13.05;46.43;94838.75;5037156;28;20044;-78
2022/10/27 05:20:05;;;;;;;5.75;2.65;;;;;;;13.01;46.64;94851.88;5040527;28;20461;-78
2022/10/27 05:22:31;;;;;;;7.30;2.47;;;;;;;12.88;46.66;94848.19;5039412;28;20029;-77
2022/10/27 05:24:56;;;;;;;6.20;2.67;;;;;;;13.00;46.63;94870.91;5023852;28;20614;-78
2022/10/27 05:27:22;;;;;;;6.03;2.30;;;;;;;12.99;46.69;94866.66;5039682;28;20108;-77
2022/10/27 05:29:47;;;;;;;11.10;3.03;;;;;;;13.10;46.79;94897.38;5041336;28;20025;-77
2022/10/27 05:32:12;;;;;;;5.53;2.83;;;;;;;13.00;46.89;94893.06;5039601;28;20017;-77
2022/10/27 05:34:38;;;;;;;23.02;3.90;;;;;;;13.04;46.86;94903.91;5038196;28;20114;-77
2022/10/27 05:37:03;;;;;;;7.88;3.20;;;;;;;12.82;47.06;94894.78;5040119;28;20021;-77
2022/10/27 05:39:28;;;;;;;7.80;3.38;;;;;;;12.84;47.16;94892.59;5039244;28;20037;-78
2022/10/27 05:41:54;;;;;;;13.20;5.47;;;;;;;12.78;47.27;94893.00;5040768;28;20024;-79
2022/10/27 05:44:19;;;;;;;13.38;3.90;;;;;;;12.87;47.38;94905.34;5040023;28;20484;-78
2022/10/27 05:46:45;;;;;;;6.93;3.95;;;;;;;13.00;47.54;94930.44;5039852;28;20033;-78
2022/10/27 05:49:10;;;;;;;8.13;4.00;;;;;;;12.99;47.36;94931.53;5038767;28;20032;-78
2022/10/27 05:51:35;;;;;;;19.83;4.43;;;;;;;13.03;47.46;94929.03;5039647;28;20045;-78
2022/10/27 05:54:01;;;;;;;18.15;5.63;;;;;;;12.97;47.45;94920.34;5039872;28;20032;-78
2022/10/27 05:56:26;;;;;;;15.32;4.72;;;;;;;12.98;47.44;94924.59;5037225;28;20107;-78
2022/10/27 05:58:52;;;;;;;6.13;3.92;;;;;;;12.99;47.66;94930.75;5039973;28;20029;-78
2022/10/27 06:01:18;;;;;;;10.77;3.65;;;;;;;12.97;47.77;94938.25;5020726;28;20379;-78
2022/10/27 06:03:43;;;;;;;15.07;4.05;;;;;;;12.85;47.75;94930.78;5021587;28;20035;-77
2022/10/27 06:06:08;;;;;;;7.07;3.92;;;;;;;12.78;48.15;94925.84;5038563;28;20056;-79
2022/10/27 06:08:34;;;;;;;7.93;4.72;;;;;;;12.78;48.03;94925.03;5039883;28;20499;-78
2022/10/27 06:11:01;;;;;;;9.45;3.97;;;;;;;12.97;48.22;94956.94;5021266;28;20124;-77
2022/10/27 06:13:26;;;;;;;12.27;5.13;;;;;;;12.89;48.15;94929.88;5039355;28;20020;-78
2022/10/27 06:15:51;;;;;;;10.73;6.25;;;;;;;12.88;47.99;94928.28;5038652;28;20033;-78
2022/10/27 06:18:17;;;;;;;13.02;8.18;;;;;;;12.86;48.38;94906.44;5039804;28;20506;-79
2022/10/27 06:20:43;;;;;;;19.52;8.32;;;;;;;12.99;48.38;94926.19;5037994;28;20064;-78
2022/10/27 06:23:08;;;;;;;14.13;7.65;;;;;;;13.02;48.05;94919.44;5019937;28;20032;-78
2022/10/27 06:25:34;;;;;;;14.95;7.93;;;;;;;13.00;48.17;94921.66;5039282;28;20481;-79
2022/10/27 06:28:00;;;;;;;12.05;7.75;;;;;;;13.12;48.02;94924.56;5038670;28;20029;-78
2022/10/27 06:30:25;;;;;;;16.70;8.15;;;;;;;13.19;47.96;94951.66;5038120;28;20118;-78
2022/10/27 06:32:51;;;;;;;18.48;9.52;;;;;;;13.36;47.47;94967.81;5039009;28;20017;-77
2022/10/27 06:35:17;;;;;;;18.55;9.23;;;;;;;13.42;47.36;94971.97;5038152;28;20036;-79
2022/10/27 06:37:44;;;;;;;15.80;8.85;;;;;;;13.44;47.27;94979.69;5017660;28;20067;-78
2022/10/27 06:40:11;;;;;;;21.50;7.95;;;;;;;13.24;47.94;94971.03;5035844;28;20396;-78
2022/10/27 06:42:37;;;;;;;18.48;9.48;;;;;;;13.46;47.70;94970.25;5026898;28;20163;-78
2022/10/27 06:45:04;;;;;;;27.83;8.35;;;;;;;13.31;47.73;94934.00;5036141;28;20029;-78
2022/10/27 06:47:29;;;;;;;23.85;10.00;;;;;;;13.42;48.21;94982.66;5034023;28;20043;-78
2022/10/27 06:49:55;;;;;;;18.30;10.00;;;;;;;13.15;48.38;94956.03;5037523;28;20029;-78
2022/10/27 06:52:20;;;;;;;19.48;8.15;;;;;;;13.24;48.48;94981.72;5033830;28;20706;-78
2022/10/27 06:54:45;;;;;;;21.55;8.98;;;;;;;13.10;48.48;94964.16;5033119;28;20037;-77
2022/10/27 06:57:11;;;;;;;17.48;8.98;;;;;;;13.14;48.62;94954.44;5033418;28;20024;-78
2022/10/27 06:59:36;;;;;;;16.52;8.88;;;;;;;13.23;48.26;94941.94;5033133;28;20039;-78
2022/10/27 07:02:02;;;;;;;17.77;9.20;;;;;;;13.40;48.37;94960.00;5033324;28;20027;-78
2022/10/27 07:04:28;;;;;;;20.92;9.05;;;;;;;13.38;48.23;94960.31;5033067;28;20108;-77
2022/10/27 07:06:53;;;;;;;15.85;8.23;;;;;;;13.75;47.43;94988.59;5032725;28;20029;-80
2022/10/27 07:09:19;;;;;;;16.25;7.93;;;;;;;13.79;47.47;94975.41;5031008;28;20319;-79
2022/10/27 07:11:44;;;;;;;14.27;7.38;;;;;;;14.11;47.19;94978.59;5032975;28;20033;-77
2022/10/27 07:14:09;;;;;;;16.33;8.20;;;;;;;14.00;46.67;94949.72;5032951;28;20021;-78
2022/10/27 07:16:35;;;;;;;12.95;6.28;;;;;;;14.21;46.25;94982.09;5033487;28;20087;-78
2022/10/27 07:19:00;;;;;;;16.75;8.35;;;;;;;14.10;45.89;94970.88;5034230;28;20037;-78
2022/10/27 07:21:26;;;;;;;17.05;6.80;;;;;;;14.31;45.81;94974.59;5033207;28;20578;-78
2022/10/27 07:23:52;;;;;;;12.57;8.05;;;;;;;14.27;45.87;94984.34;5033551;28;20124;-77
2022/10/27 07:26:17;;;;;;;14.88;7.50;;;;;;;14.07;45.82;94956.22;5033726;28;20100;-79
2022/10/27 07:28:42;;;;;;;10.07;6.45;;;;;;;14.49;45.41;94991.50;5015134;28;20901;-78
2022/10/27 07:31:08;;;;;;;14.23;6.30;;;;;;;14.50;44.58;95003.81;5033082;28;20044;-79
2022/10/27 07:33:33;;;;;;;12.55;6.60;;;;;;;14.60;45.01;95008.91;5034553;28;20235;-78
2022/10/27 07:35:59;;;;;;;10.38;4.80;;;;;;;14.21;44.71;94972.19;5032631;28;20515;-79
2022/10/27 07:38:24;;;;;;;16.20;4.60;;;;;;;14.44;44.43;94997.00;5033078;28;20333;-78
2022/10/27 07:40:49;;;;;;;10.30;3.78;;;;;;;14.54;44.50;95010.94;5033527;28;20044;-78
2022/10/27 07:43:16;;;;;;;7.18;3.38;;;;;;;14.54;44.13;95015.50;5033302;28;20079;-78
2022/10/27 07:45:42;;;;;;;9.32;3.85;;;;;;;14.45;43.82;94988.66;5031604;28;20044;-78
2022/10/27 07:48:13;;;;;;;9.07;4.18;;;;;;;14.84;43.84;95013.88;5032832;28;20114;-78
2022/10/27 07:50:38;;;;;;;7.78;3.78;;;;;;;14.90;43.19;94997.38;5032147;28;20044;-78
2022/10/27 07:53:04;;;;;;;7.35;3.75;;;;;;;15.07;43.57;95025.28;5033845;28;20024;-77
2022/10/27 07:55:31;;;;;;;6.88;3.70;;;;;;;15.17;43.11;95025.00;5033955;28;20013;-79
2022/10/27 07:58:04;;;;;;;7.20;3.78;;;;;;;15.13;43.07;95005.28;5034237;28;20071;-78
2022/10/27 08:00:31;;;;;;;10.02;4.45;;;;;;;15.25;42.98;95019.66;5032995;28;20295;-78
2022/10/27 08:03:04;;;;;;;8.77;4.18;;;;;;;15.21;42.93;95016.00;5032251;28;20728;-77
2022/10/27 08:05:32;;;;;;;6.20;3.90;;;;;;;15.32;42.57;95019.19;5015630;28;20027;-77
2022/10/27 08:07:59;;;;;;;11.68;3.17;;;;;;;15.35;42.44;95000.56;5032910;28;20369;-77
2022/10/27 08:10:24;;;;;;;8.35;5.00;;;;;;;15.35;42.38;95003.25;5034246;28;20029;-77
2022/10/27 08:12:50;;;;;;;7.18;3.80;;;;;;;15.44;42.19;95012.16;5010249;28;20025;-77
2022/10/27 08:15:15;;;;;;;8.60;4.05;;;;;;;15.53;42.11;95006.00;5015736;28;20029;-77
2022/10/27 08:17:41;;;;;;;7.07;3.85;;;;;;;15.60;42.35;94987.53;5031951;28;20052;-78
2022/10/27 08:20:08;;;;;;;6.00;3.22;;;;;;;15.69;42.64;94994.50;5029837;28;20029;-78
2022/10/27 08:22:33;;;;;;;9.07;3.88;;;;;;;15.68;42.89;94981.38;5029864;28;20083;-79
2022/10/27 08:24:59;;;;;;;6.60;3.60;;;;;;;15.81;42.36;94997.31;5029797;28;20506;-79
2022/10/27 08:27:24;;;;;;;5.43;3.67;;;;;;;15.78;42.45;94981.06;5016324;28;20481;-76
2022/10/27 08:29:49;;;;;;;12.65;4.10;;;;;;;15.78;42.56;94991.78;5036322;28;20033;-78
2022/10/27 08:32:15;;;;;;;7.88;4.13;;;;;;;15.87;42.76;94992.56;5036024;28;20029;-77
2022/10/27 08:34:41;;;;;;;6.50;4.22;;;;;;;15.84;41.99;95006.63;5031454;28;20124;-78
2022/10/27 08:37:07;;;;;;;7.10;3.70;;;;;;;15.87;42.34;94995.25;5033012;28;20033;-79
2022/10/27 08:39:32;;;;;;;8.73;4.22;;;;;;;15.90;41.81;94994.63;5026492;28;20083;-79
2022/10/27 08:42:03;;;;;;;6.10;4.10;;;;;;;16.08;41.47;95001.56;5032395;28;20043;-78
2022/10/27 08:44:31;;;;;;;5.28;3.60;;;;;;;16.11;41.24;94995.53;5032573;28;20488;-79
2022/10/27 08:47:02;;;;;;;12.85;4.22;;;;;;;16.29;41.29;95007.78;5033961;28;20079;-79
2022/10/27 08:49:39;;;;;;;8.93;3.85;;;;;;;16.25;41.05;95001.50;5032085;28;20027;-76
2022/10/27 08:52:52;;;;;;;11.65;3.90;;;;;;;16.25;40.77;95012.22;5036121;28;20025;-76
2022/10/27 08:55:57;;;;;;;7.13;3.30;;;;;;;16.26;40.63;95005.75;5028669;28;20574;-77
2022/10/27 08:58:40;;;;;;;6.93;3.95;;;;;;;16.44;40.65;94997.69;5034428;28;20033;-77
2022/10/27 09:01:18;;;;;;;9.15;3.35;;;;;;;16.40;39.83;94997.53;5033955;28;20396;-76
2022/10/27 09:03:59;;;;;;;11.30;3.80;;;;;;;16.35;39.92;94981.59;5036316;28;20024;-76
2022/10/27 09:06:43;;;;;;;6.47;3.17;;;;;;;16.52;39.64;94986.94;5034161;28;20132;-77
2022/10/27 09:09:23;;;;;;;11.45;2.78;;;;;;;16.66;37.66;95005.50;5010133;28;20029;-77
2022/10/27 09:12:04;;;;;;;3.88;2.10;;;;;;;16.66;38.40;95000.13;5039198;28;20400;-77
2022/10/27 09:14:44;;;;;;;9.00;2.55;;;;;;;16.81;38.58;95002.28;5037383;28;20031;-77
2022/10/27 09:17:15;;;;;;;4.07;2.17;;;;;;;16.93;37.94;94999.69;5037878;28;20045;-78
2022/10/27 09:20:03;;;;;;;3.97;2.72;;;;;;;16.87;38.29;95011.72;5035461;28;20341;-76
2022/10/27 09:22:32;;;;;;;4.47;2.40;;;;;;;16.65;38.60;94940.25;5036086;28;20344;-75
2022/10/27 09:25:05;;;;;;;8.52;2.75;;;;;;;16.95;38.02;94991.31;5036869;28;20112;-76
2022/10/27 09:27:32;;;;;;;3.35;1.80;;;;;;;16.97;37.96;94999.81;5036996;28;20044;-79
2022/10/27 09:30:01;;;;;;;5.35;2.17;;;;;;;16.97;37.22;94989.06;5037266;28;20124;-79
2022/10/27 09:32:26;;;;;;;4.32;2.25;;;;;;;17.00;37.92;94978.47;5035273;28;20587;-78
2022/10/27 09:35:11;;;;;;;7.40;2.08;;;;;;;17.18;35.92;94996.09;5039121;28;20062;-78
2022/10/27 09:37:40;;;;;;;3.53;1.95;;;;;;;17.08;35.79;94979.53;5037189;28;20033;-77
2022/10/27 09:40:32;;;;;;;6.57;1.90;;;;;;;17.05;36.47;94956.00;5038819;28;20036;-76
2022/10/27 09:42:59;;;;;;;2.22;1.30;;;;;;;17.16;35.99;94965.25;5032708;28;20045;-76
2022/10/27 09:45:26;;;;;;;3.20;1.42;;;;;;;17.22;35.33;94977.41;5040307;28;20115;-76
2022/10/27 09:48:03;;;;;;;3.50;1.83;;;;;;;17.23;35.46;94970.13;5036974;28;20041;-76
2022/10/27 09:50:36;;;;;;;1.95;1.50;;;;;;;17.23;35.42;94948.63;5022490;28;20401;-78
2022/10/27 09:53:03;;;;;;;3.00;1.50;;;;;;;17.36;34.70;94948.34;5038247;28;20507;-77
2022/10/27 09:55:50;;;;;;;2.45;1.60;;;;;;;17.48;35.17;94975.31;5035251;28;20041;-79
2022/10/27 09:58:17;;;;;;;1.50;1.40;;;;;;;17.55;34.95;94972.88;5018141;28;20512;-79
2022/10/27 10:00:43;;;;;;;2.70;1.60;;;;;;;17.56;34.56;94969.06;5037878;28;20149;-79
2022/10/27 10:03:20;;;;;;;2.13;1.52;;;;;;;17.64;34.73;94970.13;5037595;28;20729;-79
2022/10/27 10:05:57;;;;;;;2.60;1.95;;;;;;;17.72;34.33;94955.81;5035538;28;20039;-78
2022/10/27 10:08:25;;;;;;;2.45;1.35;;;;;;;17.64;34.75;94954.00;5037313;28;20027;-79
2022/10/27 10:10:57;;;;;;;2.95;1.17;;;;;;;17.80;33.49;94967.59;5038657;28;20032;-78
2022/10/27 10:13:24;;;;;;;1.60;1.27;;;;;;;17.80;33.16;94968.41;5037414;28;20036;-79
2022/10/27 10:16:06;;;;;;;2.13;1.05;;;;;;;17.41;32.83;94909.72;5038557;28;20386;-78
2022/10/27 10:18:34;;;;;;;3.03;1.10;;;;;;;17.81;32.66;94971.88;5037215;28;20519;-78
2022/10/27 10:21:06;;;;;;;4.22;1.38;;;;;;;17.80;33.16;94968.41;5037092;28;20040;-79
2022/10/27 10:23:56;;;;;;;2.35;1.05;;;;;;;17.55;32.64;94967.50;5038054;28;20691;-77
2022/10/27 10:26:25;;;;;;;1.30;0.90;;;;;;;17.55;32.08;94972.88;5038797;28;20033;-79
2022/10/27 10:28:54;;;;;;;3.70;1.17;;;;;;;17.71;31.94;94964.22;5038971;28;20086;-77
2022/10/27 10:31:27;;;;;;;2.33;1.05;;;;;;;17.54;33.05;94938.25;5036192;28;20516;-78
2022/10/27 10:34:26;;;;;;;1.95;1.10;;;;;;;17.27;32.82;94901.13;5039585;28;20030;-78
2022/10/27 10:36:51;;;;;;;1.73;1.15;;;;;;;17.62;32.26;94956.22;5035412;28;20407;-76
2022/10/27 10:39:28;;;;;;;2.20;1.00;;;;;;;17.76;32.18;94945.97;5034981;28;20033;-78
2022/10/27 10:42:08;;;;;;;2.28;0.98;;;;;;;18.07;34.28;94955.50;5035113;28;20037;-78
2022/10/27 10:44:34;;;;;;;3.53;1.20;;;;;;;17.93;31.93;94953.91;5037888;28;20247;-78
2022/10/27 10:47:00;;;;;;;2.13;1.02;;;;;;;17.95;31.53;94959.75;5037153;28;20033;-78
2022/10/27 10:49:29;;;;;;;3.00;1.20;;;;;;;17.74;32.01;94948.22;5035266;28;20036;-78
2022/10/27 10:51:58;;;;;;;1.70;1.20;;;;;;;17.72;32.62;94918.16;5036950;28;20036;-77
2022/10/27 10:54:29;;;;;;;2.45;1.27;;;;;;;17.58;32.31;94905.00;5037755;28;20060;-77
2022/10/27 10:56:55;;;;;;;1.55;1.05;;;;;;;17.80;32.38;94952.25;5038543;28;20082;-78
2022/10/27 10:59:25;;;;;;;2.83;1.55;;;;;;;17.93;31.89;94948.53;5036937;28;20125;-78
2022/10/27 11:01:56;;;;;;;1.73;1.15;;;;;;;18.04;31.57;94935.41;5036226;28;20044;-78
2022/10/27 11:04:25;;;;;;;3.15;1.23;;;;;;;17.72;31.91;94893.16;5036688;28;20660;-78
2022/10/27 11:07:06;;;;;;;5.78;1.38;;;;;;;18.03;31.92;94913.13;5036812;28;20028;-77
2022/10/27 11:09:44;;;;;;;1.48;1.05;;;;;;;17.70;31.47;94866.56;5037002;28;20025;-77
2022/10/27 11:12:28;;;;;;;1.90;1.40;;;;;;;18.07;30.76;94915.94;5036955;28;20029;-77
2022/10/27 11:14:57;;;;;;;2.30;1.20;;;;;;;18.42;31.71;94935.16;5018052;28;20029;-77
2022/10/27 11:17:24;;;;;;;2.70;1.33;;;;;;;18.24;31.00;94878.00;5035837;28;20545;-77
2022/10/27 11:19:51;;;;;;;2.50;1.10;;;;;;;18.71;30.02;94926.13;5034134;28;20074;-77
2022/10/27 11:22:19;;;;;;;1.92;1.15;;;;;;;18.80;30.24;94914.09;5035316;28;20139;-78
2022/10/27 11:24:56;;;;;;;3.83;1.65;;;;;;;18.92;30.12;94921.38;5018625;28;20102;-78
2022/10/27 11:27:27;;;;;;;9.98;1.50;;;;;;;18.89;30.80;94922.84;5036247;28;20526;-77
2022/10/27 11:30:03;;;;;;;3.00;1.52;;;;;;;18.98;30.93;94916.53;5035810;28;20082;-76
2022/10/27 11:32:55;;;;;;;1.90;1.65;;;;;;;18.80;30.18;94919.50;5036182;28;20484;-78
2022/10/27 11:35:47;;;;;;;2.30;1.20;;;;;;;18.83;30.92;94899.16;5016564;28;20037;-77
2022/10/27 11:38:50;;;;;;;2.53;1.10;;;;;;;18.76;29.56;94917.81;5029571;28;20551;-77
2022/10/27 11:41:23;;;;;;;1.92;1.00;;;;;;;18.67;29.37;94901.72;5027638;28;20031;-78
2022/10/27 11:44:02;;;;;;;3.47;0.90;;;;;;;18.92;28.26;94920.59;5036290;28;20119;-80